sensor_id;sensor_type;location;lat;lon;timestamp;P1;durP1;ratioP1;P2;durP2;ratioP2
69750;SDS011;57335;52.288;6.056;2023-05-23T00:01:59;15.18;;;5.80;;
69750;SDS011;57335;52.288;6.056;2023-05-23T00:04:26;13.23;;;4.63;;
69750;SDS011;57335;52.288;6.056;2023-05-23T00:06:52;14.85;;;5.97;;
69750;SDS011;57335;52.288;6.056;2023-05-23T00:09:19;15.95;;;6.25;;
69750;SDS011;57335;52.288;6.056;2023-05-23T00:11:45;15.32;;;5.35;;
69750;SDS011;57335;52.288;6.056;2023-05-23T00:14:12;17.88;;;6.07;;
69750;SDS011;57335;52.288;6.056;2023-05-23T00:16:40;15.07;;;5.40;;
69750;SDS011;57335;52.288;6.056;2023-05-23T00:19:07;10.98;;;3.83;;
69750;SDS011;57335;52.288;6.056;2023-05-23T00:21:34;15.95;;;5.53;;
69750;SDS011;57335;52.288;6.056;2023-05-23T00:24:00;13.35;;;5.20;;
69750;SDS011;57335;52.288;6.056;2023-05-23T00:26:27;16.73;;;6.32;;
69750;SDS011;57335;52.288;6.056;2023-05-23T00:28:53;11.32;;;4.40;;
69750;SDS011;57335;52.288;6.056;2023-05-23T00:31:19;11.13;;;4.30;;
69750;SDS011;57335;52.288;6.056;2023-05-23T00:33:46;14.32;;;4.88;;
69750;SDS011;57335;52.288;6.056;2023-05-23T00:36:12;12.93;;;4.57;;
69750;SDS011;57335;52.288;6.056;2023-05-23T00:38:39;12.27;;;5.07;;
69750;SDS011;57335;52.288;6.056;2023-05-23T00:41:05;10.30;;;4.70;;
69750;SDS011;57335;52.288;6.056;2023-05-23T00:43:32;13.23;;;4.65;;
69750;SDS011;57335;52.288;6.056;2023-05-23T00:45:58;13.38;;;5.18;;
69750;SDS011;57335;52.288;6.056;2023-05-23T00:48:25;14.15;;;4.72;;
69750;SDS011;57335;52.288;6.056;2023-05-23T00:50:52;17.20;;;5.07;;
69750;SDS011;57335;52.288;6.056;2023-05-23T00:53:20;10.73;;;4.63;;
69750;SDS011;57335;52.288;6.056;2023-05-23T00:55:47;14.93;;;5.55;;
69750;SDS011;57335;52.288;6.056;2023-05-23T00:58:13;10.55;;;3.63;;
69750;SDS011;57335;52.288;6.056;2023-05-23T01:00:40;14.75;;;5.10;;
69750;SDS011;57335;52.288;6.056;2023-05-23T01:03:07;15.20;;;4.82;;
69750;SDS011;57335;52.288;6.056;2023-05-23T01:05:34;13.85;;;5.72;;
69750;SDS011;57335;52.288;6.056;2023-05-23T01:08:00;15.25;;;5.53;;
69750;SDS011;57335;52.288;6.056;2023-05-23T01:10:28;15.32;;;5.38;;
69750;SDS011;57335;52.288;6.056;2023-05-23T01:15:51;15.10;;;6.03;;
69750;SDS011;57335;52.288;6.056;2023-05-23T01:18:38;14.85;;;4.60;;
69750;SDS011;57335;52.288;6.056;2023-05-23T01:21:14;14.32;;;5.32;;
69750;SDS011;57335;52.288;6.056;2023-05-23T01:29:45;18.17;;;5.97;;
69750;SDS011;57335;52.288;6.056;2023-05-23T01:32:13;18.45;;;6.55;;
69750;SDS011;57335;52.288;6.056;2023-05-23T01:34:41;19.35;;;6.22;;
69750;SDS011;57335;52.288;6.056;2023-05-23T01:37:09;17.50;;;6.60;;
69750;SDS011;57335;52.288;6.056;2023-05-23T01:39:36;18.02;;;6.68;;
69750;SDS011;57335;52.288;6.056;2023-05-23T01:42:03;15.55;;;5.85;;
69750;SDS011;57335;52.288;6.056;2023-05-23T01:44:31;20.35;;;5.88;;
69750;SDS011;57335;52.288;6.056;2023-05-23T01:46:59;12.77;;;5.53;;
69750;SDS011;57335;52.288;6.056;2023-05-23T01:49:32;15.68;;;5.78;;
69750;SDS011;57335;52.288;6.056;2023-05-23T01:52:00;14.80;;;6.05;;
69750;SDS011;57335;52.288;6.056;2023-05-23T01:54:28;14.88;;;6.57;;
69750;SDS011;57335;52.288;6.056;2023-05-23T01:56:56;15.40;;;5.30;;
69750;SDS011;57335;52.288;6.056;2023-05-23T01:59:23;14.52;;;5.65;;
69750;SDS011;57335;52.288;6.056;2023-05-23T02:01:50;17.88;;;6.78;;
69750;SDS011;57335;52.288;6.056;2023-05-23T02:04:16;17.27;;;5.90;;
69750;SDS011;57335;52.288;6.056;2023-05-23T02:06:43;14.45;;;5.55;;
69750;SDS011;57335;52.288;6.056;2023-05-23T02:09:09;17.30;;;5.60;;
69750;SDS011;57335;52.288;6.056;2023-05-23T02:11:36;14.73;;;6.15;;
69750;SDS011;57335;52.288;6.056;2023-05-23T02:14:02;18.65;;;6.55;;
69750;SDS011;57335;52.288;6.056;2023-05-23T02:16:29;14.35;;;6.50;;
69750;SDS011;57335;52.288;6.056;2023-05-23T02:18:55;15.27;;;5.70;;
69750;SDS011;57335;52.288;6.056;2023-05-23T02:21:22;11.55;;;4.95;;
69750;SDS011;57335;52.288;6.056;2023-05-23T02:23:49;14.93;;;5.70;;
69750;SDS011;57335;52.288;6.056;2023-05-23T02:26:15;16.00;;;6.07;;
69750;SDS011;57335;52.288;6.056;2023-05-23T02:28:42;14.52;;;4.97;;
69750;SDS011;57335;52.288;6.056;2023-05-23T02:31:08;17.00;;;6.95;;
69750;SDS011;57335;52.288;6.056;2023-05-23T02:33:36;19.70;;;7.22;;
69750;SDS011;57335;52.288;6.056;2023-05-23T02:36:02;18.05;;;6.30;;
69750;SDS011;57335;52.288;6.056;2023-05-23T02:38:29;13.45;;;5.55;;
69750;SDS011;57335;52.288;6.056;2023-05-23T02:40:55;15.70;;;6.00;;
69750;SDS011;57335;52.288;6.056;2023-05-23T02:43:22;16.00;;;6.78;;
69750;SDS011;57335;52.288;6.056;2023-05-23T02:45:49;14.75;;;6.32;;
69750;SDS011;57335;52.288;6.056;2023-05-23T02:48:15;13.13;;;5.03;;
69750;SDS011;57335;52.288;6.056;2023-05-23T02:50:42;16.05;;;6.22;;
69750;SDS011;57335;52.288;6.056;2023-05-23T02:53:08;15.90;;;5.32;;
69750;SDS011;57335;52.288;6.056;2023-05-23T02:55:35;15.82;;;5.63;;
69750;SDS011;57335;52.288;6.056;2023-05-23T02:58:01;12.30;;;5.32;;
69750;SDS011;57335;52.288;6.056;2023-05-23T03:00:28;15.45;;;6.05;;
69750;SDS011;57335;52.288;6.056;2023-05-23T03:02:54;13.40;;;5.13;;
69750;SDS011;57335;52.288;6.056;2023-05-23T03:05:20;15.07;;;4.97;;
69750;SDS011;57335;52.288;6.056;2023-05-23T03:07:47;11.25;;;5.07;;
69750;SDS011;57335;52.288;6.056;2023-05-23T03:10:13;12.93;;;5.05;;
69750;SDS011;57335;52.288;6.056;2023-05-23T03:12:39;14.65;;;5.45;;
69750;SDS011;57335;52.288;6.056;2023-05-23T03:15:06;13.40;;;5.25;;
69750;SDS011;57335;52.288;6.056;2023-05-23T03:17:33;14.98;;;4.90;;
69750;SDS011;57335;52.288;6.056;2023-05-23T03:19:59;15.32;;;6.32;;
69750;SDS011;57335;52.288;6.056;2023-05-23T03:22:26;14.45;;;5.88;;
69750;SDS011;57335;52.288;6.056;2023-05-23T03:24:52;21.35;;;5.88;;
69750;SDS011;57335;52.288;6.056;2023-05-23T03:27:18;15.85;;;5.63;;
69750;SDS011;57335;52.288;6.056;2023-05-23T03:29:45;13.05;;;4.82;;
69750;SDS011;57335;52.288;6.056;2023-05-23T03:32:11;18.42;;;6.03;;
69750;SDS011;57335;52.288;6.056;2023-05-23T03:34:38;14.35;;;5.50;;
69750;SDS011;57335;52.288;6.056;2023-05-23T03:37:04;14.23;;;6.10;;
69750;SDS011;57335;52.288;6.056;2023-05-23T03:39:30;19.42;;;6.10;;
69750;SDS011;57335;52.288;6.056;2023-05-23T03:41:57;16.73;;;6.03;;
69750;SDS011;57335;52.288;6.056;2023-05-23T03:44:24;12.27;;;4.63;;
69750;SDS011;57335;52.288;6.056;2023-05-23T03:46:50;15.60;;;5.82;;
69750;SDS011;57335;52.288;6.056;2023-05-23T03:49:18;14.65;;;4.68;;
69750;SDS011;57335;52.288;6.056;2023-05-23T03:51:44;13.20;;;4.25;;
69750;SDS011;57335;52.288;6.056;2023-05-23T03:54:11;11.15;;;4.40;;
69750;SDS011;57335;52.288;6.056;2023-05-23T03:56:37;12.07;;;4.43;;
69750;SDS011;57335;52.288;6.056;2023-05-23T03:59:03;14.40;;;5.32;;
69750;SDS011;57335;52.288;6.056;2023-05-23T04:01:30;15.63;;;6.22;;
69750;SDS011;57335;52.288;6.056;2023-05-23T04:03:56;12.93;;;5.15;;
69750;SDS011;57335;52.288;6.056;2023-05-23T04:06:23;14.05;;;5.47;;
69750;SDS011;57335;52.288;6.056;2023-05-23T04:08:49;15.68;;;5.63;;
69750;SDS011;57335;52.288;6.056;2023-05-23T04:11:16;12.23;;;4.60;;
69750;SDS011;57335;52.288;6.056;2023-05-23T04:13:42;11.32;;;3.70;;
69750;SDS011;57335;52.288;6.056;2023-05-23T04:16:09;13.75;;;4.80;;
69750;SDS011;57335;52.288;6.056;2023-05-23T04:18:35;15.02;;;4.70;;
69750;SDS011;57335;52.288;6.056;2023-05-23T04:21:02;16.17;;;5.13;;
69750;SDS011;57335;52.288;6.056;2023-05-23T04:23:28;9.90;;;3.63;;
69750;SDS011;57335;52.288;6.056;2023-05-23T04:25:55;16.05;;;5.30;;
69750;SDS011;57335;52.288;6.056;2023-05-23T04:28:21;16.48;;;5.78;;
69750;SDS011;57335;52.288;6.056;2023-05-23T04:30:48;14.40;;;5.07;;
69750;SDS011;57335;52.288;6.056;2023-05-23T04:33:16;18.73;;;5.30;;
69750;SDS011;57335;52.288;6.056;2023-05-23T04:35:43;14.52;;;4.90;;
69750;SDS011;57335;52.288;6.056;2023-05-23T04:38:09;11.82;;;5.03;;
69750;SDS011;57335;52.288;6.056;2023-05-23T04:40:35;14.77;;;4.80;;
69750;SDS011;57335;52.288;6.056;2023-05-23T04:43:02;14.93;;;4.70;;
69750;SDS011;57335;52.288;6.056;2023-05-23T04:45:28;12.60;;;4.50;;
69750;SDS011;57335;52.288;6.056;2023-05-23T04:47:55;14.32;;;4.70;;
69750;SDS011;57335;52.288;6.056;2023-05-23T04:50:21;16.63;;;4.80;;
69750;SDS011;57335;52.288;6.056;2023-05-23T04:52:47;13.07;;;3.80;;
69750;SDS011;57335;52.288;6.056;2023-05-23T04:55:14;15.70;;;4.45;;
69750;SDS011;57335;52.288;6.056;2023-05-23T04:57:40;14.85;;;4.18;;
69750;SDS011;57335;52.288;6.056;2023-05-23T05:00:07;14.98;;;5.22;;
69750;SDS011;57335;52.288;6.056;2023-05-23T05:02:34;10.60;;;4.13;;
69750;SDS011;57335;52.288;6.056;2023-05-23T05:05:00;13.90;;;4.00;;
69750;SDS011;57335;52.288;6.056;2023-05-23T05:07:27;16.00;;;4.70;;
69750;SDS011;57335;52.288;6.056;2023-05-23T05:09:53;10.40;;;3.53;;
69750;SDS011;57335;52.288;6.056;2023-05-23T05:12:20;18.75;;;4.75;;
69750;SDS011;57335;52.288;6.056;2023-05-23T05:14:46;12.45;;;3.78;;
69750;SDS011;57335;52.288;6.056;2023-05-23T05:17:13;12.52;;;4.65;;
69750;SDS011;57335;52.288;6.056;2023-05-23T05:19:39;14.55;;;4.88;;
69750;SDS011;57335;52.288;6.056;2023-05-23T05:22:05;14.68;;;5.05;;
69750;SDS011;57335;52.288;6.056;2023-05-23T05:24:32;14.48;;;4.15;;
69750;SDS011;57335;52.288;6.056;2023-05-23T05:26:58;12.15;;;4.18;;
69750;SDS011;57335;52.288;6.056;2023-05-23T05:29:25;11.38;;;4.28;;
69750;SDS011;57335;52.288;6.056;2023-05-23T05:31:51;15.52;;;4.22;;
69750;SDS011;57335;52.288;6.056;2023-05-23T05:34:18;14.25;;;5.35;;
69750;SDS011;57335;52.288;6.056;2023-05-23T05:36:44;16.13;;;5.25;;
69750;SDS011;57335;52.288;6.056;2023-05-23T05:39:11;12.52;;;3.95;;
69750;SDS011;57335;52.288;6.056;2023-05-23T05:41:38;13.07;;;4.20;;
69750;SDS011;57335;52.288;6.056;2023-05-23T05:44:04;10.48;;;3.72;;
69750;SDS011;57335;52.288;6.056;2023-05-23T05:46:31;13.80;;;4.20;;
69750;SDS011;57335;52.288;6.056;2023-05-23T05:48:58;15.40;;;3.88;;
69750;SDS011;57335;52.288;6.056;2023-05-23T05:51:24;13.75;;;4.95;;
69750;SDS011;57335;52.288;6.056;2023-05-23T05:53:50;12.70;;;3.97;;
69750;SDS011;57335;52.288;6.056;2023-05-23T05:56:17;14.25;;;4.30;;
69750;SDS011;57335;52.288;6.056;2023-05-23T05:58:43;8.98;;;3.40;;
69750;SDS011;57335;52.288;6.056;2023-05-23T06:01:09;12.85;;;4.40;;
69750;SDS011;57335;52.288;6.056;2023-05-23T06:03:36;11.32;;;2.95;;
69750;SDS011;57335;52.288;6.056;2023-05-23T06:06:02;11.07;;;3.35;;
69750;SDS011;57335;52.288;6.056;2023-05-23T06:08:29;14.40;;;4.00;;
69750;SDS011;57335;52.288;6.056;2023-05-23T06:10:55;10.73;;;3.13;;
69750;SDS011;57335;52.288;6.056;2023-05-23T06:13:22;9.20;;;2.90;;
69750;SDS011;57335;52.288;6.056;2023-05-23T06:15:48;13.30;;;3.83;;
69750;SDS011;57335;52.288;6.056;2023-05-23T06:18:14;10.23;;;3.28;;
69750;SDS011;57335;52.288;6.056;2023-05-23T06:20:41;12.68;;;3.65;;
69750;SDS011;57335;52.288;6.056;2023-05-23T06:23:08;8.50;;;2.63;;
69750;SDS011;57335;52.288;6.056;2023-05-23T06:25:34;10.75;;;3.65;;
69750;SDS011;57335;52.288;6.056;2023-05-23T06:28:00;16.83;;;3.88;;
69750;SDS011;57335;52.288;6.056;2023-05-23T06:30:27;13.05;;;3.72;;
69750;SDS011;57335;52.288;6.056;2023-05-23T06:32:53;10.60;;;3.03;;
69750;SDS011;57335;52.288;6.056;2023-05-23T06:35:20;11.20;;;3.15;;
69750;SDS011;57335;52.288;6.056;2023-05-23T06:37:46;15.13;;;3.70;;
69750;SDS011;57335;52.288;6.056;2023-05-23T06:40:12;12.07;;;3.08;;
69750;SDS011;57335;52.288;6.056;2023-05-23T06:42:39;9.68;;;3.15;;
69750;SDS011;57335;52.288;6.056;2023-05-23T06:45:06;9.05;;;3.13;;
69750;SDS011;57335;52.288;6.056;2023-05-23T06:47:33;10.68;;;3.03;;
69750;SDS011;57335;52.288;6.056;2023-05-23T06:50:00;9.45;;;2.80;;
69750;SDS011;57335;52.288;6.056;2023-05-23T06:52:27;10.95;;;4.03;;
69750;SDS011;57335;52.288;6.056;2023-05-23T06:54:53;14.73;;;3.78;;
69750;SDS011;57335;52.288;6.056;2023-05-23T06:57:19;9.98;;;3.35;;
69750;SDS011;57335;52.288;6.056;2023-05-23T06:59:46;10.05;;;3.15;;
69750;SDS011;57335;52.288;6.056;2023-05-23T07:02:12;10.07;;;2.70;;
69750;SDS011;57335;52.288;6.056;2023-05-23T07:04:39;10.13;;;3.35;;
69750;SDS011;57335;52.288;6.056;2023-05-23T07:07:05;9.68;;;2.50;;
69750;SDS011;57335;52.288;6.056;2023-05-23T07:09:31;9.40;;;3.13;;
69750;SDS011;57335;52.288;6.056;2023-05-23T07:11:58;10.63;;;2.80;;
69750;SDS011;57335;52.288;6.056;2023-05-23T07:14:24;9.25;;;3.03;;
69750;SDS011;57335;52.288;6.056;2023-05-23T07:16:51;9.80;;;2.90;;
69750;SDS011;57335;52.288;6.056;2023-05-23T07:19:17;9.55;;;2.45;;
69750;SDS011;57335;52.288;6.056;2023-05-23T07:21:44;8.77;;;2.35;;
69750;SDS011;57335;52.288;6.056;2023-05-23T07:24:10;7.82;;;2.10;;
69750;SDS011;57335;52.288;6.056;2023-05-23T07:26:36;11.10;;;2.42;;
69750;SDS011;57335;52.288;6.056;2023-05-23T07:29:03;8.10;;;2.67;;
69750;SDS011;57335;52.288;6.056;2023-05-23T07:31:29;10.95;;;2.78;;
69750;SDS011;57335;52.288;6.056;2023-05-23T07:33:56;5.88;;;1.83;;
69750;SDS011;57335;52.288;6.056;2023-05-23T07:36:22;7.57;;;1.80;;
69750;SDS011;57335;52.288;6.056;2023-05-23T07:38:49;6.78;;;1.90;;
69750;SDS011;57335;52.288;6.056;2023-05-23T07:41:15;9.73;;;2.45;;
69750;SDS011;57335;52.288;6.056;2023-05-23T07:43:41;13.23;;;2.50;;
69750;SDS011;57335;52.288;6.056;2023-05-23T07:46:08;10.43;;;2.50;;
69750;SDS011;57335;52.288;6.056;2023-05-23T07:48:34;10.65;;;2.75;;
69750;SDS011;57335;52.288;6.056;2023-05-23T07:51:01;8.80;;;2.35;;
69750;SDS011;57335;52.288;6.056;2023-05-23T07:53:27;5.60;;;1.73;;
69750;SDS011;57335;52.288;6.056;2023-05-23T07:55:54;8.52;;;2.08;;
69750;SDS011;57335;52.288;6.056;2023-05-23T07:58:20;8.15;;;2.22;;
69750;SDS011;57335;52.288;6.056;2023-05-23T08:00:46;6.45;;;1.83;;
69750;SDS011;57335;52.288;6.056;2023-05-23T08:03:14;7.65;;;1.83;;
69750;SDS011;57335;52.288;6.056;2023-05-23T08:05:41;7.60;;;2.28;;
69750;SDS011;57335;52.288;6.056;2023-05-23T08:08:07;11.88;;;2.92;;
69750;SDS011;57335;52.288;6.056;2023-05-23T08:10:33;8.38;;;2.25;;
69750;SDS011;57335;52.288;6.056;2023-05-23T08:13:00;11.25;;;2.80;;
69750;SDS011;57335;52.288;6.056;2023-05-23T08:15:26;5.82;;;1.92;;
69750;SDS011;57335;52.288;6.056;2023-05-23T08:17:53;10.52;;;2.10;;
69750;SDS011;57335;52.288;6.056;2023-05-23T08:20:19;10.60;;;2.17;;
69750;SDS011;57335;52.288;6.056;2023-05-23T08:22:46;14.07;;;2.65;;
69750;SDS011;57335;52.288;6.056;2023-05-23T08:25:12;9.82;;;2.08;;
69750;SDS011;57335;52.288;6.056;2023-05-23T08:27:38;9.07;;;2.72;;
69750;SDS011;57335;52.288;6.056;2023-05-23T08:30:05;9.32;;;2.00;;
69750;SDS011;57335;52.288;6.056;2023-05-23T08:32:32;11.63;;;2.70;;
69750;SDS011;57335;52.288;6.056;2023-05-23T08:34:58;10.65;;;2.28;;
69750;SDS011;57335;52.288;6.056;2023-05-23T08:37:25;12.10;;;2.13;;
69750;SDS011;57335;52.288;6.056;2023-05-23T08:39:51;8.52;;;2.05;;
69750;SDS011;57335;52.288;6.056;2023-05-23T08:42:18;12.57;;;2.42;;
69750;SDS011;57335;52.288;6.056;2023-05-23T08:44:44;13.43;;;2.33;;
69750;SDS011;57335;52.288;6.056;2023-05-23T08:47:11;10.27;;;2.10;;
69750;SDS011;57335;52.288;6.056;2023-05-23T08:49:41;9.52;;;2.78;;
69750;SDS011;57335;52.288;6.056;2023-05-23T08:52:07;9.35;;;1.92;;
69750;SDS011;57335;52.288;6.056;2023-05-23T08:54:37;6.65;;;1.83;;
69750;SDS011;57335;52.288;6.056;2023-05-23T08:57:03;10.68;;;2.30;;
69750;SDS011;57335;52.288;6.056;2023-05-23T08:59:30;11.27;;;2.15;;
69750;SDS011;57335;52.288;6.056;2023-05-23T09:01:58;6.03;;;1.85;;
69750;SDS011;57335;52.288;6.056;2023-05-23T09:04:25;9.52;;;2.83;;
69750;SDS011;57335;52.288;6.056;2023-05-23T09:06:52;10.32;;;2.20;;
69750;SDS011;57335;52.288;6.056;2023-05-23T09:09:21;7.85;;;2.05;;
69750;SDS011;57335;52.288;6.056;2023-05-23T09:11:48;11.70;;;2.40;;
69750;SDS011;57335;52.288;6.056;2023-05-23T09:14:15;10.50;;;2.22;;
69750;SDS011;57335;52.288;6.056;2023-05-23T09:16:45;8.82;;;1.85;;
69750;SDS011;57335;52.288;6.056;2023-05-23T09:19:12;11.90;;;2.38;;
69750;SDS011;57335;52.288;6.056;2023-05-23T09:21:43;8.40;;;2.25;;
69750;SDS011;57335;52.288;6.056;2023-05-23T09:24:10;10.60;;;2.13;;
69750;SDS011;57335;52.288;6.056;2023-05-23T09:26:37;9.90;;;2.80;;
69750;SDS011;57335;52.288;6.056;2023-05-23T09:29:04;9.43;;;2.10;;
69750;SDS011;57335;52.288;6.056;2023-05-23T09:31:31;9.25;;;2.15;;
69750;SDS011;57335;52.288;6.056;2023-05-23T09:33:57;9.70;;;2.03;;
69750;SDS011;57335;52.288;6.056;2023-05-23T09:36:26;10.93;;;2.45;;
69750;SDS011;57335;52.288;6.056;2023-05-23T09:38:53;17.58;;;3.08;;
69750;SDS011;57335;52.288;6.056;2023-05-23T09:41:20;11.45;;;2.55;;
69750;SDS011;57335;52.288;6.056;2023-05-23T09:43:50;14.02;;;2.85;;
69750;SDS011;57335;52.288;6.056;2023-05-23T09:46:18;8.95;;;2.13;;
69750;SDS011;57335;52.288;6.056;2023-05-23T09:48:46;11.38;;;2.72;;
69750;SDS011;57335;52.288;6.056;2023-05-23T09:51:13;9.25;;;2.55;;
69750;SDS011;57335;52.288;6.056;2023-05-23T09:53:40;11.93;;;2.10;;
69750;SDS011;57335;52.288;6.056;2023-05-23T09:56:06;10.50;;;2.58;;
69750;SDS011;57335;52.288;6.056;2023-05-23T09:58:36;8.23;;;2.28;;
69750;SDS011;57335;52.288;6.056;2023-05-23T10:01:03;10.40;;;2.55;;
69750;SDS011;57335;52.288;6.056;2023-05-23T10:03:39;10.75;;;2.75;;
69750;SDS011;57335;52.288;6.056;2023-05-23T10:06:22;18.13;;;3.03;;
69750;SDS011;57335;52.288;6.056;2023-05-23T10:08:53;11.15;;;2.50;;
69750;SDS011;57335;52.288;6.056;2023-05-23T10:14:00;10.27;;;2.53;;
69750;SDS011;57335;52.288;6.056;2023-05-23T10:19:12;10.13;;;2.33;;
69750;SDS011;57335;52.288;6.056;2023-05-23T10:21:50;8.93;;;1.90;;
69750;SDS011;57335;52.288;6.056;2023-05-23T10:24:23;6.57;;;2.85;;
69750;SDS011;57335;52.288;6.056;2023-05-23T10:26:50;13.05;;;2.72;;
69750;SDS011;57335;52.288;6.056;2023-05-23T10:29:18;10.27;;;2.22;;
69750;SDS011;57335;52.288;6.056;2023-05-23T10:31:46;12.60;;;2.10;;
69750;SDS011;57335;52.288;6.056;2023-05-23T10:35:14;5.95;;;1.70;;
69750;SDS011;57335;52.288;6.056;2023-05-23T10:37:26;8.07;;;2.05;;
69750;SDS011;57335;52.288;6.056;2023-05-23T10:40:00;6.05;;;1.83;;
69750;SDS011;57335;52.288;6.056;2023-05-23T10:43:06;9.48;;;2.28;;
69750;SDS011;57335;52.288;6.056;2023-05-23T10:45:39;8.70;;;1.98;;
69750;SDS011;57335;52.288;6.056;2023-05-23T10:48:19;5.40;;;1.65;;
69750;SDS011;57335;52.288;6.056;2023-05-23T10:51:00;11.40;;;2.20;;
69750;SDS011;57335;52.288;6.056;2023-05-23T10:53:37;7.57;;;1.70;;
69750;SDS011;57335;52.288;6.056;2023-05-23T10:56:09;7.47;;;1.60;;
69750;SDS011;57335;52.288;6.056;2023-05-23T10:58:40;10.50;;;2.50;;
69750;SDS011;57335;52.288;6.056;2023-05-23T11:09:09;10.27;;;2.00;;
69750;SDS011;57335;52.288;6.056;2023-05-23T11:14:15;8.82;;;1.73;;
69750;SDS011;57335;52.288;6.056;2023-05-23T11:16:42;8.00;;;2.20;;
69750;SDS011;57335;52.288;6.056;2023-05-23T11:21:48;8.70;;;2.20;;
69750;SDS011;57335;52.288;6.056;2023-05-23T11:24:17;6.00;;;1.80;;
69750;SDS011;57335;52.288;6.056;2023-05-23T11:26:50;7.20;;;2.10;;
69750;SDS011;57335;52.288;6.056;2023-05-23T11:29:26;12.18;;;1.92;;
69750;SDS011;57335;52.288;6.056;2023-05-23T11:31:54;15.23;;;4.63;;
69750;SDS011;57335;52.288;6.056;2023-05-23T11:34:21;8.73;;;2.20;;
69750;SDS011;57335;52.288;6.056;2023-05-23T11:36:51;8.40;;;2.15;;
69750;SDS011;57335;52.288;6.056;2023-05-23T11:39:19;11.95;;;2.47;;
69750;SDS011;57335;52.288;6.056;2023-05-23T11:41:57;8.90;;;1.92;;
69750;SDS011;57335;52.288;6.056;2023-05-23T11:44:27;10.38;;;2.35;;
69750;SDS011;57335;52.288;6.056;2023-05-23T11:47:00;8.80;;;2.30;;
69750;SDS011;57335;52.288;6.056;2023-05-23T11:49:30;6.63;;;2.40;;
69750;SDS011;57335;52.288;6.056;2023-05-23T11:52:00;10.98;;;2.33;;
69750;SDS011;57335;52.288;6.056;2023-05-23T11:54:27;10.27;;;2.50;;
69750;SDS011;57335;52.288;6.056;2023-05-23T11:56:54;12.02;;;3.03;;
69750;SDS011;57335;52.288;6.056;2023-05-23T11:59:22;9.75;;;2.30;;
69750;SDS011;57335;52.288;6.056;2023-05-23T12:01:49;10.65;;;2.63;;
69750;SDS011;57335;52.288;6.056;2023-05-23T12:04:16;9.35;;;2.40;;
69750;SDS011;57335;52.288;6.056;2023-05-23T12:06:45;8.65;;;2.30;;
69750;SDS011;57335;52.288;6.056;2023-05-23T12:09:13;7.90;;;2.00;;
69750;SDS011;57335;52.288;6.056;2023-05-23T12:11:40;7.90;;;2.30;;
69750;SDS011;57335;52.288;6.056;2023-05-23T12:14:08;9.02;;;2.13;;
69750;SDS011;57335;52.288;6.056;2023-05-23T12:16:45;9.82;;;2.20;;
69750;SDS011;57335;52.288;6.056;2023-05-23T12:19:12;7.32;;;2.22;;
69750;SDS011;57335;52.288;6.056;2023-05-23T12:21:40;8.40;;;1.73;;
69750;SDS011;57335;52.288;6.056;2023-05-23T12:24:16;9.80;;;1.83;;
69750;SDS011;57335;52.288;6.056;2023-05-23T12:26:58;9.13;;;2.10;;
69750;SDS011;57335;52.288;6.056;2023-05-23T12:29:29;12.02;;;2.30;;
69750;SDS011;57335;52.288;6.056;2023-05-23T12:32:01;13.48;;;1.88;;
69750;SDS011;57335;52.288;6.056;2023-05-23T12:34:29;8.15;;;1.90;;
69750;SDS011;57335;52.288;6.056;2023-05-23T12:36:56;9.02;;;2.10;;
69750;SDS011;57335;52.288;6.056;2023-05-23T12:39:42;9.55;;;2.08;;
69750;SDS011;57335;52.288;6.056;2023-05-23T12:42:09;9.30;;;1.50;;
69750;SDS011;57335;52.288;6.056;2023-05-23T12:44:36;5.75;;;1.52;;
69750;SDS011;57335;52.288;6.056;2023-05-23T12:47:02;8.07;;;1.77;;
69750;SDS011;57335;52.288;6.056;2023-05-23T12:49:29;10.95;;;2.67;;
69750;SDS011;57335;52.288;6.056;2023-05-23T12:51:55;7.88;;;1.90;;
69750;SDS011;57335;52.288;6.056;2023-05-23T12:54:22;10.30;;;2.33;;
69750;SDS011;57335;52.288;6.056;2023-05-23T12:56:48;9.27;;;2.00;;
69750;SDS011;57335;52.288;6.056;2023-05-23T12:59:14;9.40;;;2.53;;
69750;SDS011;57335;52.288;6.056;2023-05-23T13:01:41;10.68;;;2.22;;
69750;SDS011;57335;52.288;6.056;2023-05-23T13:04:07;7.10;;;1.85;;
69750;SDS011;57335;52.288;6.056;2023-05-23T13:06:34;9.82;;;1.95;;
69750;SDS011;57335;52.288;6.056;2023-05-23T13:09:00;6.57;;;1.90;;
69750;SDS011;57335;52.288;6.056;2023-05-23T13:11:27;11.70;;;2.78;;
69750;SDS011;57335;52.288;6.056;2023-05-23T13:13:53;8.48;;;1.90;;
69750;SDS011;57335;52.288;6.056;2023-05-23T13:16:19;12.93;;;2.30;;
69750;SDS011;57335;52.288;6.056;2023-05-23T13:18:46;7.32;;;2.00;;
69750;SDS011;57335;52.288;6.056;2023-05-23T13:21:12;11.05;;;2.20;;
69750;SDS011;57335;52.288;6.056;2023-05-23T13:23:39;9.30;;;2.00;;
69750;SDS011;57335;52.288;6.056;2023-05-23T13:26:05;8.00;;;1.83;;
69750;SDS011;57335;52.288;6.056;2023-05-23T13:28:32;9.95;;;2.10;;
69750;SDS011;57335;52.288;6.056;2023-05-23T13:30:59;9.80;;;1.85;;
69750;SDS011;57335;52.288;6.056;2023-05-23T13:33:25;9.88;;;2.20;;
69750;SDS011;57335;52.288;6.056;2023-05-23T13:35:52;9.32;;;1.83;;
69750;SDS011;57335;52.288;6.056;2023-05-23T13:38:18;9.30;;;2.00;;
69750;SDS011;57335;52.288;6.056;2023-05-23T13:40:45;11.30;;;1.98;;
69750;SDS011;57335;52.288;6.056;2023-05-23T13:43:13;8.80;;;1.60;;
69750;SDS011;57335;52.288;6.056;2023-05-23T13:45:40;9.30;;;1.70;;
69750;SDS011;57335;52.288;6.056;2023-05-23T13:48:06;8.95;;;1.85;;
69750;SDS011;57335;52.288;6.056;2023-05-23T13:50:33;9.20;;;1.60;;
69750;SDS011;57335;52.288;6.056;2023-05-23T13:52:59;9.77;;;2.00;;
69750;SDS011;57335;52.288;6.056;2023-05-23T13:55:26;13.10;;;2.28;;
69750;SDS011;57335;52.288;6.056;2023-05-23T13:57:52;8.75;;;1.83;;
69750;SDS011;57335;52.288;6.056;2023-05-23T14:00:19;12.23;;;1.95;;
69750;SDS011;57335;52.288;6.056;2023-05-23T14:02:45;8.23;;;1.98;;
69750;SDS011;57335;52.288;6.056;2023-05-23T14:05:12;10.20;;;1.90;;
69750;SDS011;57335;52.288;6.056;2023-05-23T14:07:38;6.75;;;1.92;;
69750;SDS011;57335;52.288;6.056;2023-05-23T14:10:05;8.60;;;1.75;;
69750;SDS011;57335;52.288;6.056;2023-05-23T14:12:31;7.40;;;2.00;;
69750;SDS011;57335;52.288;6.056;2023-05-23T14:14:58;8.25;;;2.15;;
69750;SDS011;57335;52.288;6.056;2023-05-23T14:17:24;6.28;;;1.77;;
69750;SDS011;57335;52.288;6.056;2023-05-23T14:19:51;7.15;;;1.65;;
69750;SDS011;57335;52.288;6.056;2023-05-23T14:22:17;8.20;;;2.20;;
69750;SDS011;57335;52.288;6.056;2023-05-23T14:24:43;7.97;;;1.75;;
69750;SDS011;57335;52.288;6.056;2023-05-23T14:27:10;5.60;;;1.67;;
69750;SDS011;57335;52.288;6.056;2023-05-23T14:29:36;12.10;;;2.17;;
69750;SDS011;57335;52.288;6.056;2023-05-23T14:32:03;8.73;;;2.33;;
69750;SDS011;57335;52.288;6.056;2023-05-23T14:34:30;9.40;;;2.60;;
69750;SDS011;57335;52.288;6.056;2023-05-23T14:36:56;7.22;;;1.85;;
69750;SDS011;57335;52.288;6.056;2023-05-23T14:39:23;10.32;;;2.53;;
69750;SDS011;57335;52.288;6.056;2023-05-23T14:41:49;5.75;;;1.58;;
69750;SDS011;57335;52.288;6.056;2023-05-23T14:44:16;9.48;;;2.40;;
69750;SDS011;57335;52.288;6.056;2023-05-23T14:46:42;10.25;;;2.38;;
69750;SDS011;57335;52.288;6.056;2023-05-23T14:49:09;10.63;;;2.05;;
69750;SDS011;57335;52.288;6.056;2023-05-23T14:51:35;6.70;;;1.98;;
69750;SDS011;57335;52.288;6.056;2023-05-23T14:54:07;9.38;;;1.83;;
69750;SDS011;57335;52.288;6.056;2023-05-23T14:56:34;6.82;;;1.80;;
69750;SDS011;57335;52.288;6.056;2023-05-23T14:59:00;6.55;;;1.85;;
69750;SDS011;57335;52.288;6.056;2023-05-23T15:01:27;10.40;;;1.88;;
69750;SDS011;57335;52.288;6.056;2023-05-23T15:03:53;11.32;;;1.90;;
69750;SDS011;57335;52.288;6.056;2023-05-23T15:06:20;6.93;;;2.20;;
69750;SDS011;57335;52.288;6.056;2023-05-23T15:08:46;10.23;;;2.13;;